createdAt,value
2018-07-09T00:01:00.537Z,2.17
2018-07-09T00:05:03.785Z,3.07
2018-07-09T00:09:07.048Z,2.23
2018-07-09T00:13:10.289Z,1.77
2018-07-09T00:17:13.520Z,2.17
2018-07-09T00:21:16.736Z,4.27
2018-07-09T00:25:19.959Z,3.70
2018-07-09T00:29:23.309Z,2.40
2018-07-09T00:33:26.542Z,2.57
2018-07-09T00:37:29.761Z,2.90
2018-07-09T00:41:32.784Z,5.97
2018-07-09T00:45:36.060Z,6.87
2018-07-09T00:49:39.276Z,2.17
2018-07-09T00:53:42.256Z,3.77
2018-07-09T00:57:45.473Z,3.50
2018-07-09T01:01:48.424Z,2.10
2018-07-09T01:05:51.683Z,4.00
2018-07-09T01:09:54.896Z,4.57
2018-07-09T01:13:58.113Z,2.90
2018-07-09T01:18:01.333Z,0.00
2018-07-09T01:22:05.277Z,0.00
2018-07-09T01:26:09.191Z,0.00
2018-07-09T01:30:14.037Z,0.00
2018-07-09T01:34:17.272Z,0.00
2018-07-09T01:38:20.490Z,0.00
2018-07-09T01:42:23.436Z,0.00
2018-07-09T01:46:26.669Z,0.00
2018-07-09T01:50:29.894Z,0.00
2018-07-09T01:54:32.835Z,0.03
2018-07-09T01:58:36.063Z,0.20
2018-07-09T02:02:39.297Z,0.00
2018-07-09T02:06:42.251Z,0.10
2018-07-09T02:10:46.355Z,0.00
2018-07-09T02:14:49.573Z,0.30
2018-07-09T02:18:52.836Z,0.00
2018-07-09T02:22:56.312Z,0.00
2018-07-09T02:26:59.614Z,0.00
2018-07-09T02:31:02.834Z,0.00
2018-07-09T02:35:06.078Z,0.00
2018-07-09T02:39:09.297Z,0.00
2018-07-09T02:43:12.530Z,0.00
2018-07-09T02:47:15.748Z,0.00
2018-07-09T02:51:18.981Z,0.00
2018-07-09T02:55:28.723Z,0.00
2018-07-09T02:59:31.933Z,0.00
2018-07-09T03:03:35.169Z,0.00
2018-07-09T03:07:38.389Z,0.00
2018-07-09T03:11:41.733Z,0.00
2018-07-09T03:15:44.682Z,0.00
2018-07-09T03:19:47.910Z,0.00
2018-07-09T03:23:51.133Z,0.00
2018-07-09T03:27:54.352Z,0.00
2018-07-09T03:31:57.304Z,0.00
2018-07-09T03:36:00.523Z,0.73
2018-07-09T03:40:03.748Z,0.47
2018-07-09T03:44:06.806Z,0.00
2018-07-09T03:48:10.046Z,0.00
2018-07-09T03:52:13.265Z,0.00
2018-07-09T03:56:16.211Z,0.00
2018-07-09T04:00:19.459Z,0.00
2018-07-09T04:04:22.697Z,0.00
2018-07-09T04:08:25.925Z,0.10
2018-07-09T04:12:29.153Z,0.00
2018-07-09T04:16:32.433Z,0.00
2018-07-09T04:20:35.651Z,0.00
2018-07-09T04:24:38.894Z,0.00
2018-07-09T04:28:41.840Z,0.00
2018-07-09T04:32:45.085Z,0.00
2018-07-09T04:36:48.051Z,0.00
2018-07-09T04:40:51.298Z,0.00
2018-07-09T04:44:54.525Z,0.00
2018-07-09T04:48:57.734Z,0.00
2018-07-09T04:53:00.960Z,0.17
2018-07-09T04:57:04.205Z,0.00
2018-07-09T05:01:07.505Z,0.00
2018-07-09T05:05:10.722Z,0.10
2018-07-09T05:09:13.672Z,0.13
2018-07-09T05:13:16.889Z,0.00
2018-07-09T05:17:20.100Z,0.00
2018-07-09T05:21:23.332Z,0.00
2018-07-09T05:25:26.592Z,0.10
2018-07-09T05:29:29.818Z,0.60
2018-07-09T05:33:33.044Z,0.13
2018-07-09T05:37:35.988Z,0.00
2018-07-09T05:41:39.229Z,0.00
2018-07-09T05:45:42.473Z,0.00
2018-07-09T05:49:45.815Z,0.63
2018-07-09T05:53:49.032Z,0.97
2018-07-09T05:57:52.266Z,0.20
2018-07-09T06:01:55.494Z,0.00
2018-07-09T06:05:58.714Z,0.00
2018-07-09T06:10:01.948Z,0.83
2018-07-09T06:14:05.454Z,0.00
2018-07-09T06:18:08.689Z,0.00
2018-07-09T06:22:11.655Z,0.00
2018-07-09T06:26:14.910Z,0.37
2018-07-09T06:30:18.123Z,0.10
2018-07-09T06:34:21.386Z,0.10
2018-07-09T06:38:24.340Z,0.00
2018-07-09T06:42:27.556Z,0.30
2018-07-09T06:46:30.850Z,0.17
2018-07-09T06:50:34.064Z,1.23
2018-07-09T06:54:37.297Z,0.00
2018-07-09T06:58:40.520Z,0.00
2018-07-09T07:02:43.468Z,2.03
2018-07-09T07:06:46.705Z,0.30
2018-07-09T07:10:49.923Z,0.00
2018-07-09T07:14:53.132Z,1.57
2018-07-09T07:18:56.691Z,6.13
2018-07-09T07:22:59.912Z,1.80
2018-07-09T07:27:03.146Z,3.97
2018-07-09T07:31:06.101Z,3.80
2018-07-09T07:35:09.332Z,4.77
2018-07-09T07:39:12.551Z,1.93
2018-07-09T07:43:15.503Z,3.47
2018-07-09T07:47:18.730Z,1.80
2018-07-09T07:51:21.946Z,2.00
2018-07-09T07:55:25.185Z,2.03
2018-07-09T07:59:28.417Z,5.40
2018-07-09T08:03:31.633Z,3.60
2018-07-09T08:07:35.545Z,4.83
2018-07-09T08:11:48.562Z,2.07
2018-07-09T08:15:42.143Z,1.83
2018-07-09T08:19:45.306Z,4.93
2018-07-09T08:23:48.526Z,2.73
2018-07-09T08:27:51.747Z,2.07
2018-07-09T08:31:54.965Z,3.33
2018-07-09T08:35:58.220Z,2.80
2018-07-09T08:40:01.196Z,4.30
2018-07-09T08:44:04.426Z,2.87
2018-07-09T08:48:07.653Z,3.67
2018-07-09T08:52:10.877Z,3.90
2018-07-09T08:56:14.087Z,1.70
2018-07-09T09:00:17.325Z,1.80
2018-07-09T09:04:20.546Z,2.10
2018-07-09T09:08:23.769Z,1.90
2018-07-09T09:12:27.520Z,4.05
2018-07-09T09:16:30.788Z,2.72
2018-07-09T09:20:33.973Z,7.33
2018-07-09T09:24:37.200Z,6.67
2018-07-09T09:28:40.641Z,2.33
2018-07-09T09:32:43.870Z,5.78
2018-07-09T09:36:47.132Z,4.58
2018-07-09T09:40:50.340Z,3.98
2018-07-09T09:44:53.984Z,3.42
2018-07-09T09:48:57.192Z,3.75
2018-07-09T09:53:00.417Z,3.08
2018-07-09T09:57:03.674Z,3.87
2018-07-09T10:01:07.277Z,4.28
2018-07-09T10:05:10.521Z,4.10
2018-07-09T10:09:13.846Z,7.35
2018-07-09T10:13:17.077Z,3.17
2018-07-09T10:17:20.293Z,2.60
2018-07-09T10:21:23.517Z,3.40
2018-07-09T10:25:26.764Z,2.17
2018-07-09T10:29:29.997Z,4.92
2018-07-09T10:33:33.222Z,4.10
2018-07-09T10:37:36.568Z,1.90
2018-07-09T10:41:39.812Z,3.92
2018-07-09T10:45:43.118Z,2.15
2018-07-09T10:49:47.078Z,4.12
2018-07-09T10:53:50.405Z,1.60
2018-07-09T10:57:53.717Z,4.22
2018-07-09T11:02:00.097Z,2.67
2018-07-09T11:06:03.368Z,4.25
2018-07-09T11:10:06.657Z,5.47
2018-07-09T11:14:09.864Z,4.08
2018-07-09T11:18:13.101Z,1.62
2018-07-09T11:22:16.966Z,4.22
2018-07-09T11:26:20.377Z,3.08
2018-07-09T11:30:25.784Z,3.80
2018-07-09T11:34:29.040Z,3.25
2018-07-09T11:38:32.264Z,2.95
2018-07-09T11:42:35.484Z,5.60
2018-07-09T11:46:38.738Z,3.27
2018-07-09T11:50:41.939Z,3.50
2018-07-09T11:54:45.153Z,2.90
2018-07-09T11:58:48.417Z,3.47
2018-07-09T12:02:51.628Z,6.40
2018-07-09T12:06:54.857Z,4.25
2018-07-09T12:10:58.065Z,5.30
2018-07-09T12:15:01.297Z,3.67
2018-07-09T12:19:06.520Z,2.52
2018-07-09T12:23:09.769Z,4.12
2018-07-09T12:27:13.010Z,4.35
2018-07-09T12:31:16.230Z,4.67
2018-07-09T12:35:19.457Z,5.70
2018-07-09T12:39:22.803Z,4.35
2018-07-09T12:43:26.582Z,5.60
2018-07-09T12:47:30.223Z,7.37
2018-07-09T12:51:33.266Z,3.15
2018-07-09T12:55:36.486Z,4.42
2018-07-09T12:59:42.325Z,2.95
2018-07-09T13:03:45.611Z,3.60
2018-07-09T13:07:48.560Z,4.90
2018-07-09T13:11:52.643Z,5.42
2018-07-09T13:15:56.775Z,3.52
2018-07-09T13:20:00.694Z,2.92
2018-07-09T13:24:05.523Z,5.78
2018-07-09T13:28:08.781Z,4.05
2018-07-09T13:32:12.068Z,4.50
2018-07-09T13:36:15.959Z,4.75
2018-07-09T13:40:19.248Z,3.27
2018-07-09T13:44:22.549Z,3.55
2018-07-09T13:48:25.784Z,4.70
2018-07-09T13:52:29.018Z,3.00
2018-07-09T13:56:32.973Z,3.95
2018-07-09T14:00:36.336Z,3.70
2018-07-09T14:04:40.392Z,5.50
2018-07-09T14:08:43.611Z,4.97
2018-07-09T14:12:46.837Z,7.62
2018-07-09T14:16:53.275Z,5.62
2018-07-09T14:20:57.532Z,2.00
2018-07-09T14:25:01.182Z,4.15
2018-07-09T14:29:05.060Z,3.27
2018-07-09T14:33:08.805Z,2.40
2018-07-09T14:37:12.062Z,4.85
2018-07-09T14:41:17.202Z,3.55
2018-07-09T14:45:20.732Z,1.98
2018-07-09T14:49:23.961Z,2.47
2018-07-09T14:53:27.327Z,1.72
2018-07-09T14:57:30.985Z,2.00
2018-07-09T15:01:34.827Z,4.55
2018-07-09T15:05:38.082Z,2.50
2018-07-09T15:09:41.335Z,2.95
2018-07-09T15:13:44.669Z,4.60
2018-07-09T15:17:47.980Z,3.02
2018-07-09T15:21:51.697Z,3.00
2018-07-09T15:25:54.946Z,2.55
2018-07-09T15:29:58.240Z,3.62
2018-07-09T15:34:01.948Z,2.27
2018-07-09T15:38:05.378Z,3.10
2018-07-09T15:42:08.620Z,3.45
2018-07-09T15:46:11.848Z,8.73
2018-07-09T15:50:15.080Z,4.80
2018-07-09T15:54:18.290Z,4.12
2018-07-09T15:58:21.526Z,5.30
2018-07-09T16:02:24.739Z,3.10
2018-07-09T16:06:27.974Z,3.87
2018-07-09T16:10:31.208Z,6.40
2018-07-09T16:14:34.448Z,4.33
2018-07-09T16:18:37.681Z,3.65
2018-07-09T16:22:40.913Z,2.72
2018-07-09T16:26:43.880Z,3.52
2018-07-09T16:30:47.105Z,4.05
2018-07-09T16:34:50.063Z,2.90
2018-07-09T16:38:53.298Z,2.55
2018-07-09T16:42:56.525Z,2.50
2018-07-09T16:46:59.792Z,1.70
2018-07-09T16:51:02.997Z,2.20
2018-07-09T16:55:06.449Z,3.30
2018-07-09T16:59:09.711Z,2.08
2018-07-09T17:03:13.000Z,6.17
2018-07-09T17:07:16.176Z,1.75
2018-07-09T17:11:19.407Z,3.10
2018-07-09T17:15:22.626Z,3.55
2018-07-09T17:19:25.862Z,4.97
2018-07-09T17:23:29.084Z,2.50
2018-07-09T17:27:32.316Z,2.62
2018-07-09T17:31:35.612Z,1.77
2018-07-09T17:35:38.848Z,2.58
2018-07-09T17:39:42.083Z,3.33
2018-07-09T17:43:45.046Z,2.50
2018-07-09T17:47:48.390Z,2.25
2018-07-09T17:51:51.344Z,5.67
2018-07-09T17:55:54.565Z,2.25
2018-07-09T17:59:57.896Z,13.58
2018-07-09T18:04:01.112Z,3.80
2018-07-09T18:08:04.367Z,7.12
2018-07-09T18:12:07.582Z,4.70
2018-07-09T18:16:13.152Z,5.22
2018-07-09T18:20:16.131Z,2.47
2018-07-09T18:24:20.085Z,1.90
2018-07-09T18:28:23.325Z,3.37
2018-07-09T18:32:26.993Z,3.33
2018-07-09T18:36:30.696Z,1.67
2018-07-09T18:40:33.975Z,1.98
2018-07-09T18:44:39.421Z,3.83
2018-07-09T18:48:42.818Z,1.85
2018-07-09T18:52:45.913Z,1.85
2018-07-09T18:56:49.968Z,2.02
2018-07-09T19:00:54.549Z,3.12
2018-07-09T19:04:58.118Z,1.90
2018-07-09T19:09:03.024Z,4.45
2018-07-09T19:13:06.278Z,3.45
2018-07-09T19:17:53.093Z,3.25
2018-07-09T19:22:01.512Z,2.10
2018-07-09T19:26:05.360Z,2.55
2018-07-09T19:30:07.811Z,2.60
2018-07-09T19:34:10.271Z,4.83
2018-07-09T19:38:13.274Z,2.95
2018-07-09T19:42:15.796Z,5.47
2018-07-09T19:46:18.297Z,3.00
2018-07-09T19:50:20.546Z,4.27
2018-07-09T19:54:22.784Z,2.35
2018-07-09T19:58:25.055Z,4.17
2018-07-09T20:02:28.059Z,2.58
2018-07-09T20:06:32.535Z,2.87
2018-07-09T20:10:40.390Z,2.98
2018-07-09T20:14:48.109Z,4.67
2018-07-09T20:18:51.850Z,3.10
2018-07-09T20:22:54.486Z,4.43
2018-07-09T20:26:57.235Z,5.23
2018-07-09T20:30:59.628Z,3.83
2018-07-09T20:35:01.845Z,4.73
2018-07-09T20:39:05.193Z,6.03
2018-07-09T20:43:07.638Z,5.07
2018-07-09T20:47:12.817Z,3.73
2018-07-09T20:51:15.482Z,5.17
2018-07-09T20:55:17.668Z,4.43
2018-07-09T20:59:20.418Z,4.20
2018-07-09T21:03:22.752Z,4.80
2018-07-09T21:07:24.956Z,7.53
2018-07-09T21:11:28.674Z,5.50
2018-07-09T21:15:31.127Z,6.80
2018-07-09T21:19:34.056Z,6.67
2018-07-09T21:23:36.258Z,6.13
2018-07-09T21:27:38.454Z,5.27
2018-07-09T21:31:40.633Z,5.93
2018-07-09T21:35:42.826Z,7.87
2018-07-09T21:39:45.026Z,7.77
2018-07-09T21:43:47.709Z,7.97
2018-07-09T21:47:59.212Z,5.77
2018-07-09T21:51:52.771Z,5.87
2018-07-09T21:55:55.381Z,6.33
2018-07-09T21:59:57.573Z,7.93
2018-07-09T22:04:00.033Z,7.27
2018-07-09T22:08:03.644Z,5.00
2018-07-09T22:12:06.129Z,0.63
2018-07-09T22:16:08.731Z,0.30
2018-07-09T22:20:10.989Z,5.97
2018-07-09T22:24:13.177Z,5.53
2018-07-09T22:28:16.184Z,4.33
2018-07-09T22:32:20.394Z,5.47
2018-07-09T22:36:24.586Z,0.00
2018-07-09T22:40:27.834Z,0.13
2018-07-09T22:44:31.174Z,0.27
2018-07-09T22:48:35.469Z,1.00
2018-07-09T22:52:38.716Z,0.37
2018-07-09T22:56:42.040Z,0.07
2018-07-09T23:00:45.638Z,0.20
2018-07-09T23:04:49.006Z,2.10
2018-07-09T23:13:11.993Z,0.77
2018-07-09T23:17:26.572Z,0.00
2018-07-09T23:21:42.573Z,0.00
2018-07-09T23:25:44.773Z,0.47
2018-07-09T23:29:46.966Z,1.67
2018-07-09T23:33:49.262Z,0.00
2018-07-09T23:37:51.457Z,0.07
2018-07-09T23:41:53.650Z,0.00
2018-07-09T23:45:55.841Z,0.00
2018-07-09T23:49:58.044Z,1.00
2018-07-09T23:54:00.243Z,0.87
2018-07-09T23:58:14.764Z,1.10
